PST,Max TemperatureF,Mean TemperatureF,Min TemperatureF,Max Dew PointF,MeanDew PointF,Min DewpointF,Max Humidity, Mean Humidity, Min Humidity, Max Sea Level PressureIn, Mean Sea Level PressureIn, Min Sea Level PressureIn, Max VisibilityMiles, Mean VisibilityMiles, Min VisibilityMiles, Max Wind SpeedMPH, Mean Wind SpeedMPH, Max Gust SpeedMPH,PrecipitationIn, CloudCover, Events, WindDirDegrees
2013-12-1,57,52,46,50,47,41,93,85,77,30.20,30.05,29.95,10,9,5,17,9,25,1.68,8,,183
2013-12-2,46,42,37,41,34,32,87,80,66,30.09,30.01,29.96,10,10,5,12,4,24,0.24,7,,289
2013-12-3,39,32,26,34,29,23,93,80,61,30.34,30.22,30.09,10,10,5,10,3,,0.00,5,,358
2013-12-4,37,30,23,27,22,19,86,77,48,30.39,30.35,30.33,10,9,0,5,0,,0.00,3,,88
2013-12-5,32,26,21,21,18,16,93,72,51,30.36,30.28,30.19,10,10,10,8,2,,0.00,6,,145
2013-12-6,33,28,24,19,14,9,74,54,38,30.19,30.13,30.06,10,10,10,9,4,20,0.00,7,,101
2013-12-7,28,21,14,16,10,7,86,63,40,30.48,30.35,30.17,10,10,10,8,3,,0.00,1,,342
2013-12-8,28,19,10,16,11,7,92,71,51,30.63,30.55,30.48,,,,8,2,,0.00,1,,148
2013-12-9,28,22,15,21,16,10,86,73,59,30.64,30.60,30.56,,,,14,5,18,0.00,7,,150
2013-12-10,33,30,26,30,27,21,93,86,74,30.57,30.51,30.45,,,,12,7,16,0.02,8,,148
2013-12-11,35,32,30,30,29,27,93,88,81,30.44,30.34,30.23,,,,10,3,,0.00,7,,150
2013-12-12,39,34,30,36,28,25,87,80,70,30.24,30.18,30.13,,,,16,8,22,0.09,5,,153
2013-12-13,44,42,39,41,39,36,93,88,81,30.47,30.39,30.23,,,,9,6,,0.02,8,,145
2013-12-14,42,40,37,37,37,36,93,89,81,30.48,30.45,30.39,,,,10,4,18,0.00,8,,153
2013-12-15,44,42,39,41,38,37,93,88,81,30.51,30.47,30.43,,,,16,9,18,0.01,8,,145
2013-12-16,44,42,41,39,38,37,87,85,76,30.51,30.44,30.29,,,,7,1,,0.00,8,,354
2013-12-17,41,38,35,37,35,34,93,90,87,30.30,30.24,30.22,,,,12,5,17,0.00,8,,147
2013-12-18,42,36,28,39,35,25,93,88,81,30.21,30.15,30.09,,,,9,5,,0.06,8,,151
2013-12-19,37,32,26,30,28,23,93,83,65,30.37,30.30,30.17,,,,8,1,,0.00,4,,348
2013-12-20,39,36,33,37,32,28,93,86,75,30.26,30.03,29.89,,,,17,8,25,0.33,8,,153
2013-12-21,46,42,39,45,40,37,93,89,81,30.25,30.15,29.96,,,,9,5,,0.07,8,,147
2013-12-22,50,47,44,46,44,43,93,88,82,30.38,30.33,30.25,,,,12,7,16,0.00,8,,157
2013-12-23,51,50,48,46,45,43,93,86,76,30.37,30.33,30.30,10,7,2,13,6,18,0.17,8,,162
2013-12-24,41,38,35,37,35,34,93,90,87,30.65,30.60,30.54,10,3,0,7,2,,0.00,8,,182
2013-12-25,41,37,33,34,33,30,93,85,76,30.53,30.48,30.42,10,8,0,9,2,,0.00,6,,138
2013-12-26,35,34,32,32,30,28,93,87,81,30.43,30.35,30.26,10,4,0,9,5,,0.00,8,,142
2013-12-27,37,34,32,34,32,30,93,87,81,30.43,30.29,30.22,8,4,0,,,,0.00,8,,-1
2013-12-28,46,40,33,39,35,30,93,87,71,30.54,30.51,30.43,10,6,1,,,,0.00,7,,-1
2013-12-29,41,37,33,36,34,30,93,86,81,30.51,30.42,30.34,10,10,6,,,,0.00,8,,-1
2013-12-30,42,40,37,36,35,34,87,85,76,30.33,30.26,30.19,10,9,7,,,,0.00,5,,-1
2013-12-31,46,42,39,41,38,36,93,83,76,30.40,30.33,30.26,10,7,2,,,,0.00,7,,-1